Time;durP1;ratioP1;P1;durP2;ratioP2;P2;SDS_P1;SDS_P2;PMS_P1;PMS_P2;Temp;Humidity;BMP_temperature;BMP_pressure;BME280_temperature;BME280_humidity;BME280_pressure;Samples;Min_cycle;Max_cycle;Signal;HPM_P1;HPM_P2
2023/01/22 00:01:59;;;;;;;;;;;19.20;99.90;;;;;;5024596;28;19917;-77
2023/01/22 00:04:25;;;;;;;;;;;19.30;99.90;;;;;;5025033;28;19920;-77
2023/01/22 00:06:52;;;;;;;;;;;19.20;99.90;;;;;;5024972;28;19921;-75
2023/01/22 00:09:21;;;;;;;;;;;19.40;99.90;;;;;;5024393;28;19924;-67
2023/01/22 00:11:48;;;;;;;;;;;19.30;99.90;;;;;;5024118;28;19925;-74
2023/01/22 00:14:15;;;;;;;;;;;19.50;99.90;;;;;;5024691;28;20253;-72
2023/01/22 00:16:42;;;;;;;;;;;19.50;99.90;;;;;;5024930;28;20004;-66
2023/01/22 00:19:08;;;;;;;;;;;19.40;99.90;;;;;;5024463;28;20523;-67
2023/01/22 00:21:35;;;;;;;;;;;19.40;99.90;;;;;;5023897;28;19920;-72
2023/01/22 00:24:02;;;;;;;;;;;19.30;99.90;;;;;;5024011;28;19913;-69
2023/01/22 00:26:29;;;;;;;;;;;19.50;99.90;;;;;;5031303;28;20406;-66
2023/01/22 00:28:55;;;;;;;;;;;19.40;99.90;;;;;;5033151;28;19955;-66
2023/01/22 00:31:22;;;;;;;;;;;19.50;99.90;;;;;;5032817;28;19916;-73
2023/01/22 00:33:49;;;;;;;;;;;19.60;99.90;;;;;;5032450;28;19917;-71
2023/01/22 00:36:17;;;;;;;;;;;19.40;99.90;;;;;;5033095;28;20253;-73
2023/01/22 00:38:44;;;;;;;;;;;19.50;99.90;;;;;;5032790;28;19910;-70
2023/01/22 00:41:11;;;;;;;;;;;19.30;99.90;;;;;;5033219;28;19916;-71
2023/01/22 00:43:39;;;;;;;;;;;19.40;99.90;;;;;;5032924;28;19916;-71
2023/01/22 00:46:06;;;;;;;;;;;19.40;99.90;;;;;;5036798;28;19924;-70
2023/01/22 00:48:33;;;;;;;;;;;19.30;99.90;;;;;;5036795;28;20047;-75
2023/01/22 00:51:00;;;;;;;;;;;19.40;99.90;;;;;;5036901;28;19909;-73
2023/01/22 00:53:26;;;;;;;;;;;19.50;99.90;;;;;;5036278;28;20382;-70
2023/01/22 00:56:00;;;;;;;;;;;19.40;99.90;;;;;;5036643;28;19955;-70
2023/01/22 00:58:27;;;;;;;;;;;19.40;99.90;;;;;;5036604;28;20022;-70
2023/01/22 01:00:54;;;;;;;;;;;19.40;99.90;;;;;;5036850;28;19917;-66
2023/01/22 01:03:29;;;;;;;;;;;19.20;99.90;;;;;;5035800;28;20347;-66
2023/01/22 01:05:56;;;;;;;;;;;19.50;99.90;;;;;;5036421;28;19917;-67
2023/01/22 01:08:24;;;;;;;;;;;19.40;99.90;;;;;;5036281;28;20279;-67
2023/01/22 01:10:57;;;;;;;;;;;19.40;99.90;;;;;;5036340;28;19909;-66
2023/01/22 01:13:24;;;;;;;;;;;19.50;99.90;;;;;;5035863;28;19909;-67
2023/01/22 01:15:58;;;;;;;;;;;19.50;99.90;;;;;;5036439;28;19963;-67
2023/01/22 01:18:24;;;;;;;;;;;19.50;99.90;;;;;;5036320;28;19909;-68
2023/01/22 01:20:55;;;;;;;;;;;19.50;99.90;;;;;;5036725;28;20310;-67
2023/01/22 01:23:22;;;;;;;;;;;19.50;99.90;;;;;;5035581;28;20267;-67
2023/01/22 01:25:49;;;;;;;;;;;19.70;99.90;;;;;;5036194;28;20405;-66
2023/01/22 01:28:16;;;;;;;;;;;19.40;99.90;;;;;;5036267;28;19909;-67
2023/01/22 01:30:43;;;;;;;;;;;19.50;99.90;;;;;;5036186;28;19909;-67
2023/01/22 01:33:10;;;;;;;;;;;19.70;99.90;;;;;;5035469;28;20361;-66
2023/01/22 01:35:36;;;;;;;;;;;19.60;99.90;;;;;;5035583;28;19916;-68
2023/01/22 01:38:03;;;;;;;;;;;19.60;99.90;;;;;;5035549;28;19937;-67
2023/01/22 01:40:30;;;;;;;;;;;19.70;99.90;;;;;;5035715;28;20390;-67
2023/01/22 01:42:57;;;;;;;;;;;19.70;99.90;;;;;;5035401;28;19916;-67
2023/01/22 01:45:26;;;;;;;;;;;19.70;99.90;;;;;;5035590;28;19917;-66
2023/01/22 01:47:56;;;;;;;;;;;19.70;99.90;;;;;;5035609;28;19992;-67
2023/01/22 01:50:25;;;;;;;;;;;19.70;99.90;;;;;;5035547;28;19909;-68
2023/01/22 01:52:51;;;;;;;;;;;19.60;99.90;;;;;;5035057;28;20000;-66
2023/01/22 01:55:21;;;;;;;;;;;19.80;99.90;;;;;;5034748;28;20006;-66
2023/01/22 01:57:47;;;;;;;;;;;19.80;99.90;;;;;;5035264;28;19924;-67
2023/01/22 02:00:15;;;;;;;;;;;19.80;99.90;;;;;;5035235;28;19927;-67
2023/01/22 02:02:42;;;;;;;;;;;19.80;99.90;;;;;;5035038;28;19909;-66
2023/01/22 02:05:09;;;;;;;;;;;19.70;99.90;;;;;;5035253;28;20116;-67
2023/01/22 02:07:35;;;;;;;;;;;19.70;99.90;;;;;;5034713;28;19914;-68
2023/01/22 02:10:05;;;;;;;;;;;19.80;99.90;;;;;;5035224;28;20000;-67
2023/01/22 02:12:33;;;;;;;;;;;19.90;99.90;;;;;;5034807;28;19963;-67
2023/01/22 02:15:02;;;;;;;;;;;19.90;99.90;;;;;;5035212;28;19909;-67
2023/01/22 02:17:29;;;;;;;;;;;19.90;99.90;;;;;;5034669;28;19913;-66
2023/01/22 02:19:55;;;;;;;;;;;20.10;99.90;;;;;;5035200;28;20315;-66
2023/01/22 02:22:24;;;;;;;;;;;20.10;99.90;;;;;;5034596;28;20356;-67
2023/01/22 02:24:51;;;;;;;;;;;20.20;99.90;;;;;;5035004;28;20415;-67
2023/01/22 02:27:18;;;;;;;;;;;20.20;99.90;;;;;;5034965;28;19910;-67
2023/01/22 02:29:44;;;;;;;;;;;20.00;99.90;;;;;;5034700;28;19913;-67
2023/01/22 02:32:12;;;;;;;;;;;19.90;99.90;;;;;;5034351;28;19910;-67
2023/01/22 02:34:39;;;;;;;;;;;20.00;99.90;;;;;;5034823;28;20249;-67
2023/01/22 02:37:05;;;;;;;;;;;20.00;99.90;;;;;;5034661;28;19920;-66
2023/01/22 02:39:32;;;;;;;;;;;20.10;99.90;;;;;;5034489;28;19913;-66
2023/01/22 02:41:59;;;;;;;;;;;19.90;99.90;;;;;;5034465;28;20400;-67
2023/01/22 02:44:26;;;;;;;;;;;19.90;99.90;;;;;;5034541;28;19961;-67
2023/01/22 02:46:52;;;;;;;;;;;19.90;99.90;;;;;;5034619;28;19925;-67
2023/01/22 02:49:19;;;;;;;;;;;19.90;99.90;;;;;;5034081;28;19948;-65
2023/01/22 02:51:46;;;;;;;;;;;19.90;99.90;;;;;;5033940;28;20043;-66
2023/01/22 02:54:12;;;;;;;;;;;19.90;99.90;;;;;;5029643;28;20024;-73
2023/01/22 02:56:39;;;;;;;;;;;19.70;99.90;;;;;;5025696;28;20371;-69
2023/01/22 02:59:06;;;;;;;;;;;19.50;99.90;;;;;;5025473;28;19925;-73
2023/01/22 03:01:32;;;;;;;;;;;19.50;99.90;;;;;;5025397;28;20020;-74
2023/01/22 03:04:09;;;;;;;;;;;19.30;99.90;;;;;;5025976;28;19917;-66
2023/01/22 03:06:37;;;;;;;;;;;19.20;99.90;;;;;;5025707;28;19948;-68
2023/01/22 03:09:04;;;;;;;;;;;19.20;99.90;;;;;;5024353;28;20356;-66
2023/01/22 03:11:32;;;;;;;;;;;19.10;99.90;;;;;;5024971;28;19913;-66
2023/01/22 03:22:14;;;;;;;;;;;19.50;99.90;;;;;;5033973;28;19963;-66
2023/01/22 03:24:41;;;;;;;;;;;19.60;99.90;;;;;;5033676;28;20379;-67
2023/01/22 03:27:08;;;;;;;;;;;19.80;99.90;;;;;;5033831;28;19951;-67
2023/01/22 03:29:37;;;;;;;;;;;19.60;99.90;;;;;;5033741;28;19913;-72
2023/01/22 03:32:05;;;;;;;;;;;19.50;99.90;;;;;;5033595;28;19909;-68
2023/01/22 03:34:31;;;;;;;;;;;19.80;99.90;;;;;;5027688;28;20366;-74
2023/01/22 03:36:58;;;;;;;;;;;19.70;99.90;;;;;;5025159;28;20714;-66
2023/01/22 03:39:26;;;;;;;;;;;19.70;99.90;;;;;;5025140;28;20359;-66
2023/01/22 03:41:52;;;;;;;;;;;19.70;99.90;;;;;;5025149;28;20519;-66
2023/01/22 03:44:19;;;;;;;;;;;19.80;99.90;;;;;;5025088;28;19913;-66
2023/01/22 03:46:45;;;;;;;;;;;19.80;99.90;;;;;;5024973;28;20020;-68
2023/01/22 03:49:13;;;;;;;;;;;19.70;99.90;;;;;;5025097;28;20298;-67
2023/01/22 03:51:39;;;;;;;;;;;19.70;99.90;;;;;;5024756;28;19923;-66
2023/01/22 03:54:06;;;;;;;;;;;19.70;99.90;;;;;;5025325;28;19913;-66
2023/01/22 03:56:34;;;;;;;;;;;19.60;99.90;;;;;;5025047;28;20474;-68
2023/01/22 03:59:02;;;;;;;;;;;19.80;99.90;;;;;;5024835;28;20505;-69
2023/01/22 04:01:28;;;;;;;;;;;19.90;99.90;;;;;;5024158;28;19924;-67
2023/01/22 04:03:55;;;;;;;;;;;20.00;99.90;;;;;;5024885;28;20363;-68
2023/01/22 04:06:22;;;;;;;;;;;19.80;99.90;;;;;;5024982;28;19921;-69
2023/01/22 04:08:50;;;;;;;;;;;20.00;99.90;;;;;;5027865;28;19936;-68
2023/01/22 04:11:17;;;;;;;;;;;20.00;99.90;;;;;;5032878;28;19909;-69
2023/01/22 04:13:44;;;;;;;;;;;20.00;99.90;;;;;;5033076;28;19916;-69
2023/01/22 04:16:12;;;;;;;;;;;19.80;99.90;;;;;;5033351;28;19909;-65
2023/01/22 04:18:38;;;;;;;;;;;19.80;99.90;;;;;;5032811;28;19910;-67
2023/01/22 04:21:05;;;;;;;;;;;19.80;99.90;;;;;;5032840;28;19940;-69
2023/01/22 04:23:31;;;;;;;;;;;20.00;99.90;;;;;;5032752;28;19913;-67
2023/01/22 04:25:58;;;;;;;;;;;20.00;99.90;;;;;;5032886;28;19924;-67
2023/01/22 04:28:25;;;;;;;;;;;20.10;99.90;;;;;;5032948;28;19945;-67
2023/01/22 04:30:53;;;;;;;;;;;20.30;99.90;;;;;;5032886;28;19932;-69
2023/01/22 04:33:19;;;;;;;;;;;20.20;99.90;;;;;;5032434;28;19913;-66
2023/01/22 04:35:49;;;;;;;;;;;20.10;99.90;;;;;;5048461;28;19963;-68
2023/01/22 04:38:15;;;;;;;;;;;20.10;99.90;;;;;;5033045;28;20000;-67
2023/01/22 04:40:42;;;;;;;;;;;20.10;99.90;;;;;;5033097;28;19948;-66
2023/01/22 04:43:09;;;;;;;;;;;20.00;99.90;;;;;;5032591;28;20410;-75
2023/01/22 04:45:35;;;;;;;;;;;20.00;99.90;;;;;;5032565;28;19913;-67
2023/01/22 04:48:02;;;;;;;;;;;20.10;99.90;;;;;;5033027;28;20003;-69
2023/01/22 04:50:30;;;;;;;;;;;20.20;99.90;;;;;;5032837;28;19913;-75
2023/01/22 04:52:57;;;;;;;;;;;20.30;99.90;;;;;;5032565;28;19916;-69
2023/01/22 04:55:24;;;;;;;;;;;20.30;99.90;;;;;;5032628;28;19955;-70
2023/01/22 04:57:54;;;;;;;;;;;20.30;99.90;;;;;;5033187;28;19960;-73
2023/01/22 05:00:20;;;;;;;;;;;20.40;99.90;;;;;;5032603;28;19921;-77
2023/01/22 05:02:47;;;;;;;;;;;20.40;99.90;;;;;;5032391;28;19967;-77
2023/01/22 05:05:14;;;;;;;;;;;20.40;99.90;;;;;;5032274;28;19924;-70
2023/01/22 05:07:40;;;;;;;;;;;20.50;99.90;;;;;;5032381;28;19999;-67
2023/01/22 05:10:07;;;;;;;;;;;20.40;99.90;;;;;;5032781;28;20275;-71
2023/01/22 05:12:34;;;;;;;;;;;20.50;99.90;;;;;;5032562;28;20359;-74
2023/01/22 05:15:01;;;;;;;;;;;20.40;99.90;;;;;;5032851;28;20279;-71
2023/01/22 05:17:27;;;;;;;;;;;20.50;99.90;;;;;;5032600;28;19916;-70
2023/01/22 05:19:54;;;;;;;;;;;20.50;99.90;;;;;;5032865;28;19909;-69
2023/01/22 05:22:20;;;;;;;;;;;20.50;99.90;;;;;;5031907;28;19979;-72
2023/01/22 05:24:47;;;;;;;;;;;20.50;99.90;;;;;;5032209;28;20401;-71
2023/01/22 05:27:14;;;;;;;;;;;20.30;99.90;;;;;;5032443;28;19992;-72
2023/01/22 05:29:40;;;;;;;;;;;20.40;99.90;;;;;;5032336;28;19917;-71
2023/01/22 05:32:07;;;;;;;;;;;20.50;99.90;;;;;;5034381;28;19965;-76
2023/01/22 05:34:34;;;;;;;;;;;20.60;99.90;;;;;;5035956;28;20391;-76
2023/01/22 05:37:00;;;;;;;;;;;20.70;99.90;;;;;;5050899;28;19916;-76
2023/01/22 05:39:27;;;;;;;;;;;20.60;99.90;;;;;;5035732;28;20364;-70
2023/01/22 05:41:54;;;;;;;;;;;20.70;99.90;;;;;;5035464;28;19909;-69
2023/01/22 05:44:21;;;;;;;;;;;20.70;99.90;;;;;;5035594;28;19909;-73
2023/01/22 05:46:47;;;;;;;;;;;20.70;99.90;;;;;;5035471;28;19921;-70
2023/01/22 05:49:14;;;;;;;;;;;20.70;99.90;;;;;;5035243;28;19916;-74
2023/01/22 05:51:40;;;;;;;;;;;20.70;99.90;;;;;;5035175;28;20305;-74
2023/01/22 05:54:07;;;;;;;;;;;20.60;99.90;;;;;;5035601;28;19948;-74
2023/01/22 05:56:34;;;;;;;;;;;20.50;99.90;;;;;;5035369;28;20388;-74
2023/01/22 05:59:00;;;;;;;;;;;20.60;99.90;;;;;;5035304;28;19924;-75
2023/01/22 06:01:27;;;;;;;;;;;20.60;99.90;;;;;;5034842;28;19959;-73
2023/01/22 06:03:54;;;;;;;;;;;20.50;99.90;;;;;;5035507;28;19916;-75
2023/01/22 06:06:20;;;;;;;;;;;20.50;99.90;;;;;;5035246;28;19963;-76
2023/01/22 06:08:50;;;;;;;;;;;20.50;99.90;;;;;;5035436;28;20326;-74
2023/01/22 06:11:16;;;;;;;;;;;20.50;99.90;;;;;;5034601;28;19918;-74
2023/01/22 06:13:43;;;;;;;;;;;20.60;99.90;;;;;;5016977;28;19909;-74
2023/01/22 06:16:10;;;;;;;;;;;20.60;99.90;;;;;;5015304;28;19910;-74
2023/01/22 06:18:37;;;;;;;;;;;20.60;99.90;;;;;;5015290;28;19997;-75
2023/01/22 06:21:05;;;;;;;;;;;20.50;99.90;;;;;;5014474;28;19909;-71
2023/01/22 06:23:32;;;;;;;;;;;20.50;99.90;;;;;;5023336;28;19916;-75
2023/01/22 06:26:00;;;;;;;;;;;20.50;99.90;;;;;;5034610;28;19921;-75
2023/01/22 06:28:27;;;;;;;;;;;20.60;99.90;;;;;;5034209;28;19996;-75
2023/01/22 06:31:01;;;;;;;;;;;20.40;99.90;;;;;;5034196;28;19915;-75
2023/01/22 06:33:27;;;;;;;;;;;20.50;99.90;;;;;;5034248;28;20348;-75
2023/01/22 06:35:54;;;;;;;;;;;20.60;99.90;;;;;;5034339;28;19909;-74
2023/01/22 06:38:22;;;;;;;;;;;20.60;99.90;;;;;;5034278;28;19909;-73
2023/01/22 06:40:55;;;;;;;;;;;20.60;99.90;;;;;;5034227;28;20049;-73
2023/01/22 06:43:22;;;;;;;;;;;20.50;99.90;;;;;;5033205;28;19944;-74
2023/01/22 06:45:48;;;;;;;;;;;20.50;99.90;;;;;;5034108;28;19917;-75
2023/01/22 06:48:15;;;;;;;;;;;20.40;99.90;;;;;;5034024;28;20409;-75
2023/01/22 06:50:42;;;;;;;;;;;20.50;99.90;;;;;;5031385;28;19909;-73
2023/01/22 06:53:09;;;;;;;;;;;20.40;99.90;;;;;;5031874;28;19913;-74
2023/01/22 06:55:36;;;;;;;;;;;20.70;99.90;;;;;;5031788;28;20107;-75
2023/01/22 06:58:03;;;;;;;;;;;20.70;99.90;;;;;;5031592;28;19909;-74
2023/01/22 07:00:29;;;;;;;;;;;20.70;99.90;;;;;;5031758;28;19974;-72
2023/01/22 07:02:56;;;;;;;;;;;20.60;99.90;;;;;;5031116;28;19917;-73
2023/01/22 07:05:23;;;;;;;;;;;20.60;99.90;;;;;;5031726;28;20063;-72
2023/01/22 07:07:52;;;;;;;;;;;20.70;99.90;;;;;;5031582;28;19910;-74
2023/01/22 07:10:19;;;;;;;;;;;20.60;99.90;;;;;;5031642;28;19913;-74
2023/01/22 07:12:45;;;;;;;;;;;20.60;99.90;;;;;;5031475;28;19916;-75
2023/01/22 07:15:12;;;;;;;;;;;20.70;99.90;;;;;;5031286;28;19921;-72
2023/01/22 07:17:38;;;;;;;;;;;20.60;99.90;;;;;;5031557;28;19928;-76
2023/01/22 07:20:06;;;;;;;;;;;20.70;99.90;;;;;;5031629;28;19916;-73
2023/01/22 07:22:32;;;;;;;;;;;20.80;99.90;;;;;;5031089;28;19914;-73
2023/01/22 07:24:59;;;;;;;;;;;20.60;99.90;;;;;;5031375;28;19917;-71
2023/01/22 07:27:25;;;;;;;;;;;20.70;99.90;;;;;;5031263;28;19913;-73
2023/01/22 07:29:52;;;;;;;;;;;20.50;99.90;;;;;;5031295;28;20272;-71
2023/01/22 07:32:19;;;;;;;;;;;20.50;99.90;;;;;;5031010;28;20011;-75
2023/01/22 07:34:45;;;;;;;;;;;20.40;99.90;;;;;;5031479;28;19944;-70
2023/01/22 07:37:12;;;;;;;;;;;20.30;99.90;;;;;;5031161;28;19990;-68
2023/01/22 07:39:38;;;;;;;;;;;20.40;99.90;;;;;;5031503;28;19914;-75
2023/01/22 07:42:05;;;;;;;;;;;20.20;99.90;;;;;;5030923;28;20499;-76
2023/01/22 07:44:32;;;;;;;;;;;19.90;99.90;;;;;;5031561;28;20077;-76
2023/01/22 07:46:58;;;;;;;;;;;19.60;99.90;;;;;;5031449;28;19917;-76
2023/01/22 07:49:25;;;;;;;;;;;19.60;99.90;;;;;;5031273;28;19910;-76
2023/01/22 07:51:52;;;;;;;;;;;19.40;99.90;;;;;;5030969;28;19910;-76
2023/01/22 07:54:19;;;;;;;;;;;19.60;99.90;;;;;;5030534;28;19960;-72
2023/01/22 07:56:45;;;;;;;;;;;19.50;99.90;;;;;;5031282;28;19923;-75
2023/01/22 07:59:12;;;;;;;;;;;19.60;99.90;;;;;;5030867;28;19948;-69
2023/01/22 08:01:38;;;;;;;;;;;19.70;99.90;;;;;;5031008;28;19913;-75
2023/01/22 08:04:05;;;;;;;;;;;19.70;99.90;;;;;;5031707;28;19910;-75
2023/01/22 08:06:32;;;;;;;;;;;19.70;99.90;;;;;;5033027;28;20303;-75
2023/01/22 08:08:59;;;;;;;;;;;19.60;99.90;;;;;;5033350;28;19960;-76
2023/01/22 08:11:26;;;;;;;;;;;19.50;99.90;;;;;;5032517;28;19910;-75
2023/01/22 08:13:53;;;;;;;;;;;19.50;99.90;;;;;;5032998;28;20249;-76
2023/01/22 08:16:20;;;;;;;;;;;19.50;99.90;;;;;;5033030;28;19913;-73
2023/01/22 08:18:47;;;;;;;;;;;19.40;99.90;;;;;;5032990;28;19913;-73
2023/01/22 08:21:14;;;;;;;;;;;19.40;99.90;;;;;;5032297;28;19916;-77
2023/01/22 08:23:41;;;;;;;;;;;19.50;99.90;;;;;;5033098;28;19909;-76
2023/01/22 08:26:07;;;;;;;;;;;19.40;99.90;;;;;;5033023;28;19928;-76
2023/01/22 08:28:35;;;;;;;;;;;19.30;99.90;;;;;;5033070;28;20283;-76
2023/01/22 08:31:02;;;;;;;;;;;19.40;99.90;;;;;;5032765;28;20023;-74
2023/01/22 08:33:30;;;;;;;;;;;19.50;99.90;;;;;;5032623;28;19920;-75
2023/01/22 08:35:57;;;;;;;;;;;19.40;99.90;;;;;;5032627;28;20283;-77
2023/01/22 08:38:24;;;;;;;;;;;19.40;99.90;;;;;;5029717;28;20320;-77
2023/01/22 08:40:51;;;;;;;;;;;19.40;99.90;;;;;;5028781;28;19913;-76
2023/01/22 08:43:18;;;;;;;;;;;19.20;99.90;;;;;;5024345;28;19913;-76
2023/01/22 08:45:47;;;;;;;;;;;19.20;99.90;;;;;;5024525;28;19974;-76
2023/01/22 08:48:13;;;;;;;;;;;19.10;99.90;;;;;;5024546;28;19913;-73
2023/01/22 08:50:40;;;;;;;;;;;19.00;99.90;;;;;;5024105;28;19952;-75
2023/01/22 08:53:07;;;;;;;;;;;18.90;99.90;;;;;;5023798;28;20375;-75
2023/01/22 08:55:33;;;;;;;;;;;18.80;99.90;;;;;;5024291;28;19913;-77
2023/01/22 08:58:00;;;;;;;;;;;18.50;99.90;;;;;;5024531;28;20059;-75
2023/01/22 09:00:27;;;;;;;;;;;18.40;99.90;;;;;;5024081;28;19929;-74
2023/01/22 09:02:57;;;;;;;;;;;18.40;99.90;;;;;;5024133;28;19921;-75
2023/01/22 09:05:24;;;;;;;;;;;18.10;99.90;;;;;;5025015;28;19971;-76
2023/01/22 09:07:51;;;;;;;;;;;18.20;99.90;;;;;;5027328;28;19917;-76
2023/01/22 09:10:18;;;;;;;;;;;18.20;99.90;;;;;;5027490;28;19921;-76
2023/01/22 09:12:44;;;;;;;;;;;18.10;99.90;;;;;;5027548;28;19963;-75
2023/01/22 09:15:11;;;;;;;;;;;18.10;99.90;;;;;;5027925;28;19913;-75
2023/01/22 09:17:37;;;;;;;;;;;18.10;99.90;;;;;;5027576;28;20435;-75
2023/01/22 09:20:04;;;;;;;;;;;18.30;99.90;;;;;;5027420;28;19923;-73
2023/01/22 09:22:31;;;;;;;;;;;18.40;99.90;;;;;;5027283;28;19956;-76
2023/01/22 09:24:58;;;;;;;;;;;18.40;99.90;;;;;;5027224;28;19967;-75
2023/01/22 09:27:24;;;;;;;;;;;18.50;99.90;;;;;;5027818;28;20332;-72
2023/01/22 09:29:51;;;;;;;;;;;18.60;99.90;;;;;;5027546;28;19982;-70
2023/01/22 09:32:18;;;;;;;;;;;18.60;99.90;;;;;;5027320;28;19913;-72
2023/01/22 09:34:44;;;;;;;;;;;18.60;99.90;;;;;;5027379;28;19913;-73
2023/01/22 09:37:13;;;;;;;;;;;18.60;99.90;;;;;;5027463;28;20054;-71
2023/01/22 09:39:39;;;;;;;;;;;18.50;99.90;;;;;;5027271;28;19923;-71
2023/01/22 09:42:09;;;;;;;;;;;18.40;99.90;;;;;;5027055;28;20043;-68
2023/01/22 09:44:40;;;;;;;;;;;18.30;99.90;;;;;;5027407;28;20556;-71
2023/01/22 09:47:11;;;;;;;;;;;18.40;99.90;;;;;;5009105;28;19952;-73
2023/01/22 09:49:50;;;;;;;;;;;18.40;99.90;;;;;;5027008;28;19999;-71
2023/01/22 09:52:17;;;;;;;;;;;18.50;99.90;;;;;;5027015;28;19919;-69
2023/01/22 09:54:43;;;;;;;;;;;18.50;99.90;;;;;;5026901;28;19917;-74
2023/01/22 09:57:12;;;;;;;;;;;18.60;99.90;;;;;;5026998;28;19917;-68
2023/01/22 09:59:44;;;;;;;;;;;18.60;99.90;;;;;;5026633;28;20067;-68
2023/01/22 10:02:14;;;;;;;;;;;18.60;99.90;;;;;;5026426;28;19913;-73
2023/01/22 10:04:43;;;;;;;;;;;18.60;99.90;;;;;;5026840;28;20007;-70
2023/01/22 10:07:23;;;;;;;;;;;18.50;99.90;;;;;;5026452;28;20368;-71
2023/01/22 10:09:54;;;;;;;;;;;18.40;99.90;;;;;;5026902;28;19917;-73
2023/01/22 10:12:20;;;;;;;;;;;18.40;99.90;;;;;;5026141;28;20697;-76
2023/01/22 10:14:54;;;;;;;;;;;18.40;99.90;;;;;;5026915;28;19971;-71
2023/01/22 10:17:23;;;;;;;;;;;18.40;99.90;;;;;;5025574;28;19920;-76
2023/01/22 10:19:59;;;;;;;;;;;18.40;99.90;;;;;;5026505;28;19913;-70
2023/01/22 10:22:26;;;;;;;;;;;18.50;99.90;;;;;;5025886;28;19967;-70
2023/01/22 10:24:53;;;;;;;;;;;18.50;99.90;;;;;;5026147;28;19913;-75
2023/01/22 10:27:22;;;;;;;;;;;18.40;99.90;;;;;;5026581;28;19928;-68
2023/01/22 10:29:57;;;;;;;;;;;18.40;99.90;;;;;;5026197;28;19936;-74
2023/01/22 10:32:25;;;;;;;;;;;18.40;99.90;;;;;;5026203;28;20438;-76
2023/01/22 10:35:04;;;;;;;;;;;18.30;99.90;;;;;;5026459;28;19948;-70
2023/01/22 10:37:30;;;;;;;;;;;18.30;99.90;;;;;;5025999;28;19921;-70
2023/01/22 10:39:58;;;;;;;;;;;18.20;99.90;;;;;;5026047;28;20428;-74
2023/01/22 10:42:27;;;;;;;;;;;18.20;99.90;;;;;;5025704;28;20432;-73
2023/01/22 10:44:55;;;;;;;;;;;18.20;99.90;;;;;;5025929;28;19917;-75
2023/01/22 10:47:26;;;;;;;;;;;18.20;99.90;;;;;;5025795;28;20680;-69
2023/01/22 10:50:06;;;;;;;;;;;18.20;99.90;;;;;;5026280;28;19920;-76
2023/01/22 10:52:39;;;;;;;;;;;18.20;99.90;;;;;;5025656;28;20256;-69
2023/01/22 10:55:06;;;;;;;;;;;18.10;99.90;;;;;;5025855;28;19913;-72
2023/01/22 10:57:34;;;;;;;;;;;18.20;99.90;;;;;;5021859;28;19918;-71
2023/01/22 11:00:13;;;;;;;;;;;18.10;99.90;;;;;;5007577;28;19967;-71
2023/01/22 11:02:44;;;;;;;;;;;18.10;99.90;;;;;;5014497;28;19913;-74
2023/01/22 11:05:18;;;;;;;;;;;18.10;99.90;;;;;;5014560;28;20331;-75
2023/01/22 11:07:52;;;;;;;;;;;18.10;99.90;;;;;;5014748;28;19910;-70
2023/01/22 11:10:24;;;;;;;;;;;18.10;99.90;;;;;;5014562;28;19914;-68
2023/01/22 11:12:57;;;;;;;;;;;18.10;99.90;;;;;;5014580;28;19917;-69
2023/01/22 11:15:29;;;;;;;;;;;18.20;99.90;;;;;;5014377;28;19909;-66
2023/01/22 11:17:57;;;;;;;;;;;18.10;99.90;;;;;;5014532;28;19963;-65
2023/01/22 11:20:46;;;;;;;;;;;18.20;99.90;;;;;;5014286;28;19913;-65
2023/01/22 11:23:26;;;;;;;;;;;18.20;99.90;;;;;;5020095;28;19945;-67
2023/01/22 11:25:59;;;;;;;;;;;18.20;99.90;;;;;;5034146;28;20067;-70
2023/01/22 11:28:40;;;;;;;;;;;18.20;99.90;;;;;;5014048;28;19917;-67
2023/01/22 11:31:25;;;;;;;;;;;18.20;99.90;;;;;;4994408;28;19996;-66
2023/01/22 11:33:52;;;;;;;;;;;18.20;99.90;;;;;;4994698;28;19964;-73
2023/01/22 11:36:29;;;;;;;;;;;18.30;99.90;;;;;;4994569;28;19910;-67
2023/01/22 11:39:05;;;;;;;;;;;18.30;99.90;;;;;;4994012;28;19914;-66
2023/01/22 11:41:41;;;;;;;;;;;18.30;99.90;;;;;;4994136;28;19968;-70
2023/01/22 11:44:20;;;;;;;;;;;18.30;99.90;;;;;;4994487;28;19910;-69
2023/01/22 11:46:53;;;;;;;;;;;18.30;99.90;;;;;;4994372;28;19961;-68
2023/01/22 11:49:37;;;;;;;;;;;18.30;99.90;;;;;;4993644;28;19921;-66
2023/01/22 11:52:07;;;;;;;;;;;18.30;99.90;;;;;;4994067;28;19980;-69
2023/01/22 11:54:52;;;;;;;;;;;18.30;99.90;;;;;;4994354;28;19910;-67
2023/01/22 11:57:24;;;;;;;;;;;18.30;99.90;;;;;;4994127;28;19910;-65
2023/01/22 11:59:57;;;;;;;;;;;18.20;99.90;;;;;;4994044;28;19925;-75
2023/01/22 12:02:42;;;;;;;;;;;18.20;99.90;;;;;;4993895;28;19909;-71
2023/01/22 12:05:09;;;;;;;;;;;18.30;99.90;;;;;;5004761;28;20170;-68
2023/01/22 12:07:35;;;;;;;;;;;18.30;99.90;;;;;;5011240;28;19914;-66
2023/01/22 12:10:02;;;;;;;;;;;18.40;99.90;;;;;;5013809;28;20272;-73
2023/01/22 12:12:47;;;;;;;;;;;18.30;99.90;;;;;;5013412;28;19913;-71
2023/01/22 12:15:23;;;;;;;;;;;18.30;99.90;;;;;;5012776;28;19913;-72
2023/01/22 12:17:59;;;;;;;;;;;18.30;99.90;;;;;;5009645;28;19914;-74
2023/01/22 12:20:43;;;;;;;;;;;18.30;99.90;;;;;;5013241;28;19910;-73
2023/01/22 12:23:36;;;;;;;;;;;18.30;99.90;;;;;;5019120;28;19913;-70
2023/01/22 12:26:02;;;;;;;;;;;18.40;99.90;;;;;;5017337;28;19921;-70
2023/01/22 12:28:33;;;;;;;;;;;18.30;99.90;;;;;;5033312;28;20331;-70
2023/01/22 12:31:01;;;;;;;;;;;18.30;99.90;;;;;;5032885;28;19913;-69
2023/01/22 12:33:30;;;;;;;;;;;18.30;99.90;;;;;;5033129;28;20392;-72
2023/01/22 12:35:59;;;;;;;;;;;18.30;99.90;;;;;;5033121;28;19909;-69
2023/01/22 12:38:28;;;;;;;;;;;18.30;99.90;;;;;;5033219;28;19971;-74
2023/01/22 12:41:05;;;;;;;;;;;18.20;99.90;;;;;;5035378;28;19941;-75
2023/01/22 12:43:43;;;;;;;;;;;18.20;99.90;;;;;;5036834;28;20321;-73
2023/01/22 12:46:15;;;;;;;;;;;18.20;99.90;;;;;;5037206;28;19924;-74
2023/01/22 12:48:47;;;;;;;;;;;18.00;99.90;;;;;;5052336;28;19963;-74
2023/01/22 12:51:43;;;;;;;;;;;18.10;99.90;;;;;;5036586;28;19909;-74
2023/01/22 12:54:25;;;;;;;;;;;18.10;99.90;;;;;;5037063;28;19909;-71
2023/01/22 12:56:55;;;;;;;;;;;18.10;99.90;;;;;;5037061;28;19916;-71
2023/01/22 12:59:39;;;;;;;;;;;18.00;99.90;;;;;;5036539;28;19921;-73
2023/01/22 13:02:24;;;;;;;;;;;18.10;99.90;;;;;;5036578;28;19909;-73
2023/01/22 13:04:51;;;;;;;;;;;18.00;99.90;;;;;;5036664;28;19909;-74
2023/01/22 13:07:22;;;;;;;;;;;18.00;99.90;;;;;;5036392;28;19924;-73
2023/01/22 13:10:00;;;;;;;;;;;18.00;99.90;;;;;;5036697;28;19940;-74
2023/01/22 13:12:27;;;;;;;;;;;18.00;99.90;;;;;;5036232;28;19996;-75
2023/01/22 13:14:54;;;;;;;;;;;18.00;99.90;;;;;;5036607;28;19909;-75
2023/01/22 13:17:22;;;;;;;;;;;18.00;99.90;;;;;;5036293;28;19917;-75
2023/01/22 13:19:50;;;;;;;;;;;17.90;99.90;;;;;;5036241;28;19914;-75
2023/01/22 13:22:21;;;;;;;;;;;18.00;99.90;;;;;;5036179;28;19909;-74
2023/01/22 13:24:52;;;;;;;;;;;18.00;99.90;;;;;;5036363;28;19996;-70
2023/01/22 13:27:36;;;;;;;;;;;18.00;99.90;;;;;;5036159;28;19960;-75
2023/01/22 13:30:14;;;;;;;;;;;18.00;99.90;;;;;;5036161;28;19909;-75
2023/01/22 13:32:41;;;;;;;;;;;18.00;99.90;;;;;;5036405;28;19909;-75
2023/01/22 13:35:12;;;;;;;;;;;18.00;99.90;;;;;;5036283;28;19957;-74
2023/01/22 13:37:40;;;;;;;;;;;18.00;99.90;;;;;;5036275;28;19910;-75
2023/01/22 13:40:23;;;;;;;;;;;18.00;99.90;;;;;;5036363;28;19909;-73
2023/01/22 13:42:50;;;;;;;;;;;18.00;99.90;;;;;;5036011;28;19963;-75
2023/01/22 13:45:21;;;;;;;;;;;18.00;99.90;;;;;;5035808;28;19909;-75
2023/01/22 13:47:47;;;;;;;;;;;18.00;99.90;;;;;;5035823;28;19940;-75
2023/01/22 13:50:21;;;;;;;;;;;18.00;99.90;;;;;;5035298;28;19933;-76
2023/01/22 13:52:49;;;;;;;;;;;18.10;99.90;;;;;;5034759;28;19959;-76
2023/01/22 13:55:17;;;;;;;;;;;18.10;99.90;;;;;;5035832;28;20083;-71
2023/01/22 13:57:47;;;;;;;;;;;18.20;99.90;;;;;;5035727;28;20414;-75
2023/01/22 14:00:28;;;;;;;;;;;18.20;99.90;;;;;;5035255;28;19928;-73
2023/01/22 14:02:56;;;;;;;;;;;18.30;99.90;;;;;;5035811;28;19909;-74
2023/01/22 14:05:24;;;;;;;;;;;18.30;99.90;;;;;;5035329;28;20372;-75
2023/01/22 14:07:51;;;;;;;;;;;18.20;99.90;;;;;;5024020;28;19925;-75
2023/01/22 14:10:20;;;;;;;;;;;18.30;99.90;;;;;;5014789;28;19913;-70
2023/01/22 14:13:07;;;;;;;;;;;18.30;99.90;;;;;;5015618;28;19983;-75
2023/01/22 14:15:34;;;;;;;;;;;18.30;99.90;;;;;;5015230;28;19916;-76
2023/01/22 14:18:19;;;;;;;;;;;18.20;99.90;;;;;;5015457;28;19910;-68
2023/01/22 14:20:47;;;;;;;;;;;18.20;99.90;;;;;;5015045;28;19909;-74
2023/01/22 14:23:14;;;;;;;;;;;18.20;99.90;;;;;;5020317;28;19917;-75
2023/01/22 14:25:45;;;;;;;;;;;18.20;99.90;;;;;;5013856;28;20026;-75
2023/01/22 14:28:12;;;;;;;;;;;18.10;99.90;;;;;;5015400;28;20015;-67
2023/01/22 14:30:38;;;;;;;;;;;18.10;99.90;;;;;;5015127;28;20421;-74
2023/01/22 14:33:05;;;;;;;;;;;18.10;99.90;;;;;;5015342;28;19956;-72
2023/01/22 14:35:32;;;;;;;;;;;18.10;99.90;;;;;;5014110;28;20108;-68